Time;durP1;ratioP1;P1;durP2;ratioP2;P2;SDS_P1;SDS_P2;PMS_P1;PMS_P2;Temp;Humidity;BMP_temperature;BMP_pressure;BME280_temperature;BME280_humidity;BME280_pressure;Samples;Min_cycle;Max_cycle;Signal;HPM_P1;HPM_P2
2023/05/04 00:02:05;;;;;;;17.88;13.23;;;;;;;10.93;65.95;94000.78;4978635;28;20088;-82
2023/05/04 00:04:30;;;;;;;24.65;15.65;;;;;;;10.54;67.38;93979.53;4973422;28;20100;-81
2023/05/04 00:06:56;;;;;;;23.85;16.85;;;;;;;10.57;67.66;93995.66;4978348;28;20504;-81
2023/05/04 00:09:21;;;;;;;28.23;18.92;;;;;;;10.39;68.63;93995.91;4973896;28;20108;-82
2023/05/04 00:11:46;;;;;;;25.30;17.35;;;;;;;10.61;68.18;94001.16;4976584;28;20062;-81
2023/05/04 00:14:12;;;;;;;23.30;16.60;;;;;;;10.63;68.12;94004.28;4976449;28;20109;-82
2023/05/04 00:16:37;;;;;;;27.27;18.13;;;;;;;10.30;69.39;93996.63;4975641;28;20042;-83
2023/05/04 00:19:03;;;;;;;20.83;16.42;;;;;;;10.42;69.57;94000.59;4978473;28;20042;-83
2023/05/04 00:21:28;;;;;;;27.27;16.85;;;;;;;10.44;69.69;94006.41;4974159;28;20038;-81
2023/05/04 00:23:53;;;;;;;26.77;18.38;;;;;;;10.56;68.76;93993.31;4975478;28;20640;-81
2023/05/04 00:26:19;;;;;;;22.73;16.85;;;;;;;10.56;68.63;93988.00;4978107;28;20026;-82
2023/05/04 00:28:44;;;;;;;20.00;16.55;;;;;;;10.61;68.10;93985.22;4979101;28;20044;-83
2023/05/04 00:31:10;;;;;;;22.27;16.35;;;;;;;9.17;73.48;93998.84;4971462;28;20042;-82
2023/05/04 00:33:35;;;;;;;26.90;18.67;;;;;;;7.93;79.20;94010.53;4976452;28;20046;-83
2023/05/04 00:36:03;;;;;;;24.52;20.85;;;;;;;7.55;81.84;93986.00;4978014;28;20115;-82
2023/05/04 00:38:29;;;;;;;26.10;20.90;;;;;;;7.43;83.08;94001.53;4975896;28;20571;-81
2023/05/04 00:40:54;;;;;;;28.45;23.13;;;;;;;7.18;84.99;94015.16;4976169;28;20034;-83
2023/05/04 00:43:20;;;;;;;34.53;23.42;;;;;;;6.86;86.70;93992.81;4975786;28;20505;-82
2023/05/04 00:45:46;;;;;;;31.80;24.63;;;;;;;6.76;87.71;93997.44;4977095;28;20034;-83
2023/05/04 00:48:11;;;;;;;33.03;25.08;;;;;;;6.60;88.53;93996.09;4976046;28;20113;-83
2023/05/04 00:50:37;;;;;;;30.30;24.35;;;;;;;6.55;89.24;93980.31;4978012;28;20366;-82
2023/05/04 00:53:08;;;;;;;34.20;24.15;;;;;;;6.78;89.26;94025.19;4976811;28;20743;-81
2023/05/04 00:55:37;;;;;;;35.72;26.98;;;;;;;6.85;89.24;93996.53;4974942;28;20034;-80
2023/05/04 00:58:02;;;;;;;35.03;26.25;;;;;;;6.57;90.26;94015.13;4974843;28;20034;-83
2023/05/04 01:00:27;;;;;;;35.58;26.30;;;;;;;6.63;90.65;94006.88;4967980;28;20069;-79
2023/05/04 01:02:53;;;;;;;38.65;27.55;;;;;;;6.47;91.20;93999.41;4968454;28;20129;-82
2023/05/04 01:05:18;;;;;;;38.70;27.25;;;;;;;6.39;92.05;93998.97;4977394;28;20018;-77
2023/05/04 01:07:52;;;;;;;36.70;27.10;;;;;;;6.42;92.44;94005.53;4976882;28;20037;-82
2023/05/04 01:10:38;;;;;;;39.25;27.00;;;;;;;6.34;93.21;94001.66;4972858;28;20189;-82
2023/05/04 01:13:08;;;;;;;37.33;27.75;;;;;;;6.25;93.18;93995.44;4974809;28;20128;-81
2023/05/04 01:15:35;;;;;;;35.80;26.73;;;;;;;6.23;93.36;93983.56;4978939;28;20577;-83
2023/05/04 01:18:00;;;;;;;41.05;28.52;;;;;;;6.26;93.89;93990.94;4989154;28;20034;-82
2023/05/04 01:20:26;;;;;;;37.70;27.20;;;;;;;5.97;93.80;93954.75;4973526;28;20040;-81
2023/05/04 01:22:51;;;;;;;37.33;28.30;;;;;;;6.12;94.05;93982.84;4973650;28;20679;-82
2023/05/04 01:25:17;;;;;;;37.17;26.98;;;;;;;6.26;93.83;93994.34;4978870;28;20022;-82
2023/05/04 01:27:55;;;;;;;38.20;27.80;;;;;;;6.25;93.76;93994.66;4975062;28;20048;-81
2023/05/04 01:30:33;;;;;;;36.33;27.02;;;;;;;6.33;93.42;93983.44;4979625;28;20036;-83
2023/05/04 01:33:00;;;;;;;39.05;27.30;;;;;;;6.42;93.60;93992.31;4973027;28;20505;-81
2023/05/04 01:35:26;;;;;;;34.80;27.38;;;;;;;6.41;93.17;93977.53;4975197;28;20030;-83
2023/05/04 01:37:52;;;;;;;40.83;27.48;;;;;;;6.47;92.53;93994.13;4975321;28;20030;-82
2023/05/04 01:40:18;;;;;;;35.75;26.08;;;;;;;6.18;93.42;93954.56;4978120;28;20776;-83
2023/05/04 01:42:43;;;;;;;38.05;26.10;;;;;;;6.44;93.62;93974.34;4974942;28;20046;-83
2023/05/04 01:45:09;;;;;;;40.65;28.58;;;;;;;6.30;93.69;93965.53;4972736;28;20409;-80
2023/05/04 01:47:34;;;;;;;37.03;27.77;;;;;;;6.36;93.80;93977.63;4971417;28;20149;-78
2023/05/04 01:50:00;;;;;;;34.13;26.80;;;;;;;6.22;92.63;93918.59;4971284;28;20061;-82
2023/05/04 01:52:25;;;;;;;33.63;26.17;;;;;;;6.21;92.91;93962.75;4976081;28;20030;-81
2023/05/04 01:54:51;;;;;;;38.08;27.80;;;;;;;6.33;93.32;93967.59;4975027;28;20042;-82
2023/05/04 01:57:16;;;;;;;37.42;27.92;;;;;;;6.38;93.54;93973.63;4972506;28;20065;-82
2023/05/04 01:59:41;;;;;;;41.10;29.30;;;;;;;6.26;93.19;93956.59;4977260;28;20527;-83
2023/05/04 02:02:07;;;;;;;36.83;28.33;;;;;;;6.36;92.51;93962.53;4976615;28;20065;-83
2023/05/04 02:04:32;;;;;;;39.05;26.90;;;;;;;6.52;92.13;93973.72;4974577;28;20370;-83
2023/05/04 02:06:58;;;;;;;35.53;26.95;;;;;;;6.54;91.51;93958.38;4972678;28;20758;-82
2023/05/04 02:09:23;;;;;;;35.78;26.70;;;;;;;6.85;91.06;93988.59;4972760;28;20035;-83
2023/05/04 02:11:49;;;;;;;38.78;26.17;;;;;;;6.65;90.85;93985.47;4975125;28;20501;-82
2023/05/04 02:14:14;;;;;;;37.10;26.58;;;;;;;6.82;90.25;93972.53;4975795;28;20073;-81
2023/05/04 02:16:40;;;;;;;33.95;25.30;;;;;;;6.82;90.61;93986.53;4976618;28;20034;-82
2023/05/04 02:19:05;;;;;;;37.10;27.30;;;;;;;6.85;90.33;93974.59;4969898;28;20116;-83
2023/05/04 02:21:31;;;;;;;33.20;25.60;;;;;;;7.03;89.47;93992.34;4975143;28;20467;-83
2023/05/04 02:23:56;;;;;;;34.05;23.92;;;;;;;6.64;89.65;93984.66;4975313;28;20035;-82
2023/05/04 02:26:22;;;;;;;34.13;23.02;;;;;;;6.55;89.51;93981.09;4975014;28;20088;-82
2023/05/04 02:28:47;;;;;;;28.98;21.98;;;;;;;6.48;90.10;93982.47;4975566;28;20018;-82
2023/05/04 02:31:12;;;;;;;30.38;21.23;;;;;;;6.48;90.02;93995.69;4975290;28;20068;-83
2023/05/04 02:33:38;;;;;;;29.88;22.48;;;;;;;6.32;90.04;93981.88;4972777;28;20619;-81
2023/05/04 02:36:03;;;;;;;26.00;19.50;;;;;;;6.24;89.72;93970.09;4975823;28;20096;-84
2023/05/04 02:38:29;;;;;;;26.92;20.20;;;;;;;6.30;89.54;93978.75;4974307;28;20101;-82
2023/05/04 02:40:57;;;;;;;29.02;20.00;;;;;;;6.39;88.75;93982.34;4971680;28;20549;-83
2023/05/04 02:43:22;;;;;;;25.95;18.35;;;;;;;6.61;88.88;93995.78;4975020;28;20564;-82
2023/05/04 02:45:48;;;;;;;23.95;18.10;;;;;;;6.30;88.67;93978.75;4973825;28;20129;-83
2023/05/04 02:48:13;;;;;;;22.92;16.98;;;;;;;6.32;89.30;93981.88;4973408;28;20671;-82
2023/05/04 02:50:38;;;;;;;20.75;16.45;;;;;;;6.50;88.53;93994.38;4976071;28;20041;-82
2023/05/04 02:53:04;;;;;;;24.20;17.50;;;;;;;6.57;88.14;93984.22;4975244;28;20061;-82
2023/05/04 02:55:29;;;;;;;22.02;15.95;;;;;;;6.46;88.88;93977.47;4974879;28;20042;-82
2023/05/04 02:57:55;;;;;;;23.67;16.88;;;;;;;6.44;89.18;93990.19;4977959;28;20042;-82
2023/05/04 03:00:20;;;;;;;20.98;16.70;;;;;;;6.23;89.36;93973.00;4976732;28;20042;-83
2023/05/04 03:02:45;;;;;;;22.52;16.90;;;;;;;6.13;90.15;93975.72;4980159;28;20145;-83
2023/05/04 03:05:11;;;;;;;21.65;16.38;;;;;;;5.86;90.94;93973.63;4979812;28;20029;-81
2023/05/04 03:07:36;;;;;;;21.70;16.05;;;;;;;6.01;91.29;93991.97;4977928;28;20045;-80
2023/05/04 03:10:02;;;;;;;21.90;15.40;;;;;;;6.08;90.68;93991.63;4978037;28;20109;-83
2023/05/04 03:12:27;;;;;;;18.08;14.50;;;;;;;6.14;90.21;93975.44;4978620;28;20365;-82
2023/05/04 03:14:53;;;;;;;20.00;13.55;;;;;;;6.14;90.17;93990.50;4978931;28;20050;-80
2023/05/04 03:17:18;;;;;;;20.38;13.85;;;;;;;5.75;90.18;93946.56;4978556;28;20377;-82
2023/05/04 03:19:43;;;;;;;17.65;13.63;;;;;;;6.14;89.39;93985.22;4976916;28;20264;-82
2023/05/04 03:22:10;;;;;;;18.58;13.18;;;;;;;6.10;89.90;94000.06;4984433;28;20513;-83
2023/05/04 03:24:36;;;;;;;14.52;11.70;;;;;;;6.41;89.09;93996.03;4977466;28;20042;-83
2023/05/04 03:27:03;;;;;;;17.85;11.98;;;;;;;6.30;89.20;93994.59;4977498;28;20050;-82
2023/05/04 03:29:28;;;;;;;15.23;11.52;;;;;;;6.65;88.38;93991.50;4979119;28;20781;-83
2023/05/04 03:31:54;;;;;;;15.70;11.45;;;;;;;6.66;86.52;93977.22;4980370;28;20394;-82
2023/05/04 03:34:21;;;;;;;17.00;12.25;;;;;;;6.88;86.64;93987.25;4976754;28;20074;-83
2023/05/04 03:36:48;;;;;;;14.13;10.93;;;;;;;6.48;87.22;93996.50;4980070;28;20518;-78
2023/05/04 03:39:15;;;;;;;14.27;11.45;;;;;;;6.56;87.09;94010.91;4977244;28;20049;-83
2023/05/04 03:41:41;;;;;;;16.95;12.15;;;;;;;6.41;87.90;93990.75;4977401;28;20035;-79
2023/05/04 03:44:06;;;;;;;15.73;10.65;;;;;;;6.33;89.32;94010.66;4979040;28;20028;-81
2023/05/04 03:46:32;;;;;;;19.05;12.48;;;;;;;6.18;90.04;94016.09;4977203;28;20050;-81
2023/05/04 03:48:57;;;;;;;14.32;11.30;;;;;;;6.24;90.05;94025.56;4986052;28;20053;-82
2023/05/04 03:51:22;;;;;;;18.67;12.57;;;;;;;6.38;90.99;94033.59;4977147;28;20401;-81
2023/05/04 03:53:48;;;;;;;15.57;12.20;;;;;;;6.50;90.12;94026.06;4978519;28;20294;-82
2023/05/04 03:56:13;;;;;;;16.23;12.52;;;;;;;6.28;90.39;94033.69;4975059;28;20809;-83
2023/05/04 03:58:39;;;;;;;15.35;11.90;;;;;;;6.22;91.91;94022.38;4978522;28;20264;-84
2023/05/04 04:01:05;;;;;;;15.70;12.43;;;;;;;6.59;91.18;94031.50;4977557;28;20132;-83
2023/05/04 04:03:31;;;;;;;14.32;11.60;;;;;;;6.44;91.78;94035.13;4976017;28;20121;-83
2023/05/04 04:05:57;;;;;;;16.98;12.05;;;;;;;6.11;92.09;94020.13;4975609;28;20642;-83
2023/05/04 04:08:23;;;;;;;16.10;12.82;;;;;;;6.47;91.28;94042.47;4974098;28;20549;-82
2023/05/04 04:10:48;;;;;;;14.60;12.20;;;;;;;6.52;91.29;94039.75;4978633;28;20042;-82
2023/05/04 04:13:13;;;;;;;12.73;10.88;;;;;;;6.54;91.37;94036.84;4975432;28;20048;-82
2023/05/04 04:15:39;;;;;;;16.38;12.40;;;;;;;6.27;92.96;94046.09;4976637;28;20791;-80
2023/05/04 04:18:04;;;;;;;16.33;12.38;;;;;;;6.66;91.39;94038.00;4977673;28;20264;-82
2023/05/04 04:20:31;;;;;;;15.13;12.18;;;;;;;6.46;91.58;94034.84;4975336;28;20030;-82
2023/05/04 04:22:56;;;;;;;15.35;12.60;;;;;;;6.31;92.45;94047.13;4981030;28;20592;-82
2023/05/04 04:25:23;;;;;;;16.08;12.02;;;;;;;6.00;93.56;94003.59;4985754;28;20515;-83
2023/05/04 04:27:48;;;;;;;17.13;12.18;;;;;;;6.30;93.03;94039.50;4977706;28;20034;-82
2023/05/04 04:30:14;;;;;;;15.57;11.93;;;;;;;6.11;93.66;94038.59;4975437;28;20510;-82
2023/05/04 04:32:40;;;;;;;14.82;11.32;;;;;;;6.33;93.23;94045.00;4976000;28;20042;-83
2023/05/04 04:35:06;;;;;;;17.42;10.98;;;;;;;5.93;93.91;94024.25;4977687;28;20059;-84
2023/05/04 04:37:31;;;;;;;13.40;10.75;;;;;;;5.92;93.86;94033.25;4975411;28;20034;-84
2023/05/04 04:39:57;;;;;;;18.23;10.82;;;;;;;6.22;93.89;94048.00;4977911;28;20090;-81
2023/05/04 04:42:22;;;;;;;12.48;9.25;;;;;;;6.18;92.39;94028.50;4974739;28;20088;-83
2023/05/04 04:44:48;;;;;;;12.18;8.93;;;;;;;6.05;93.03;94055.56;4974466;28;20047;-83
2023/05/04 04:47:15;;;;;;;8.95;7.72;;;;;;;6.33;92.70;94062.69;4978050;28;20045;-84
2023/05/04 04:49:41;;;;;;;10.45;8.65;;;;;;;6.08;93.28;94070.84;4977888;28;20034;-83
2023/05/04 04:52:06;;;;;;;11.77;8.43;;;;;;;6.10;93.31;94061.59;4973305;28;20046;-83
2023/05/04 04:54:31;;;;;;;11.32;7.75;;;;;;;5.97;93.27;94022.59;4977822;28;20791;-84
2023/05/04 04:56:58;;;;;;;9.40;7.35;;;;;;;6.00;93.26;94049.25;4977440;28;20121;-82
2023/05/04 04:59:23;;;;;;;8.30;6.75;;;;;;;6.24;93.39;94069.66;4974843;28;20033;-83
2023/05/04 05:01:49;;;;;;;9.85;7.68;;;;;;;6.41;92.63;94072.63;4989446;28;20046;-83
2023/05/04 05:04:14;;;;;;;11.50;7.57;;;;;;;6.37;92.90;94063.72;4975926;28;20057;-83
2023/05/04 05:06:40;;;;;;;9.93;7.65;;;;;;;6.45;92.34;94080.81;4974445;28;20050;-83
2023/05/04 05:09:06;;;;;;;10.60;7.57;;;;;;;6.31;92.05;94080.69;4974576;28;20527;-82
2023/05/04 05:11:31;;;;;;;11.27;7.63;;;;;;;6.42;91.80;94066.28;4973994;28;20041;-84
2023/05/04 05:13:58;;;;;;;11.75;7.78;;;;;;;6.36;91.43;94084.06;4972975;28;20046;-84
2023/05/04 05:16:24;;;;;;;13.25;8.60;;;;;;;6.31;92.08;94080.69;4976510;28;20690;-84
2023/05/04 05:18:50;;;;;;;13.40;9.65;;;;;;;6.37;92.49;94084.84;4972660;28;20077;-80
2023/05/04 05:21:15;;;;;;;11.23;8.20;;;;;;;6.51;91.95;94080.47;4973646;28;20268;-81
2023/05/04 05:23:41;;;;;;;13.13;8.68;;;;;;;6.69;90.85;94097.47;4973755;28;20374;-79
2023/05/04 05:26:06;;;;;;;12.88;8.70;;;;;;;6.44;91.37;94090.59;4974525;28;20108;-83
2023/05/04 05:28:32;;;;;;;11.95;8.50;;;;;;;6.70;91.11;94102.44;4973641;28;20092;-82
2023/05/04 05:30:57;;;;;;;13.35;8.75;;;;;;;7.13;90.26;94086.63;4973805;28;20035;-83
2023/05/04 05:33:23;;;;;;;15.07;9.63;;;;;;;6.86;90.08;94098.56;4976374;28;20448;-83
2023/05/04 05:35:48;;;;;;;13.77;8.77;;;;;;;6.83;90.22;94103.66;4974100;28;20463;-81
2023/05/04 05:38:15;;;;;;;22.17;10.60;;;;;;;6.70;90.69;94091.88;4966608;28;20543;-82
2023/05/04 05:40:40;;;;;;;18.15;10.32;;;;;;;6.85;91.09;94089.06;4981557;28;20060;-82
2023/05/04 05:43:05;;;;;;;16.45;10.20;;;;;;;6.86;89.86;94095.94;4976105;28;20506;-84
2023/05/04 05:45:31;;;;;;;15.25;9.52;;;;;;;6.70;90.97;94105.09;4963213;28;20043;-84
2023/05/04 05:47:56;;;;;;;16.63;10.15;;;;;;;6.53;91.95;94115.34;4974947;28;20066;-82
2023/05/04 05:50:22;;;;;;;15.20;9.88;;;;;;;6.40;91.88;94105.44;4977147;28;20029;-83
2023/05/04 05:52:47;;;;;;;16.85;11.80;;;;;;;6.43;92.52;94123.34;4973961;28;20050;-82
2023/05/04 05:55:13;;;;;;;15.57;10.48;;;;;;;6.57;92.25;94120.84;4972528;28;20039;-83
2023/05/04 05:57:38;;;;;;;14.57;9.65;;;;;;;6.67;92.60;94108.31;4974300;28;20037;-82
2023/05/04 06:00:04;;;;;;;15.05;10.38;;;;;;;6.53;93.04;94115.34;4975671;28;20038;-82
2023/05/04 06:02:30;;;;;;;19.35;10.85;;;;;;;6.86;93.03;94125.00;4972349;28;20158;-81
2023/05/04 06:04:55;;;;;;;21.95;13.85;;;;;;;6.90;93.06;94119.19;4971111;28;20034;-80
2023/05/04 06:07:22;;;;;;;15.93;11.43;;;;;;;6.63;92.34;94123.16;4972530;28;20046;-83
2023/05/04 06:09:48;;;;;;;15.32;10.23;;;;;;;6.70;94.07;94128.13;4975071;28;20839;-82
2023/05/04 06:12:15;;;;;;;19.75;11.48;;;;;;;6.45;92.73;94113.31;4975018;28;20065;-82
2023/05/04 06:14:41;;;;;;;17.05;13.07;;;;;;;6.94;92.76;94130.75;4976800;28;20532;-83
2023/05/04 06:17:06;;;;;;;15.60;12.00;;;;;;;6.98;91.37;94131.78;4976981;28;20041;-83
2023/05/04 06:19:38;;;;;;;18.58;10.93;;;;;;;7.10;91.50;94135.56;4970968;28;20031;-82
2023/05/04 06:22:04;;;;;;;13.50;10.57;;;;;;;6.80;90.52;94089.13;4974677;28;20046;-83
2023/05/04 06:24:31;;;;;;;15.30;11.65;;;;;;;6.76;91.42;94130.41;4972605;28;20038;-83
2023/05/04 06:26:56;;;;;;;14.13;10.98;;;;;;;7.05;91.01;94132.19;4973977;28;20053;-81
2023/05/04 06:29:23;;;;;;;17.17;10.48;;;;;;;7.14;90.40;94120.72;4969925;28;20026;-84
2023/05/04 06:31:48;;;;;;;16.00;11.15;;;;;;;7.35;89.30;94126.53;4973173;28;20023;-82
2023/05/04 06:34:17;;;;;;;15.07;9.85;;;;;;;7.23;88.20;94134.13;4985994;28;20034;-82
2023/05/04 06:36:43;;;;;;;12.13;8.75;;;;;;;7.50;86.73;94109.66;4974173;28;20041;-83
2023/05/04 06:39:09;;;;;;;12.93;8.30;;;;;;;7.77;85.69;94127.59;4973375;28;20076;-83
2023/05/04 06:41:35;;;;;;;11.35;8.40;;;;;;;7.20;86.02;94121.44;4974263;28;20053;-78
2023/05/04 06:44:02;;;;;;;10.38;7.63;;;;;;;7.23;84.67;94112.94;4972747;28;20895;-82
2023/05/04 06:46:27;;;;;;;12.38;8.25;;;;;;;7.63;84.45;94132.78;4972560;28;20034;-81
2023/05/04 06:48:53;;;;;;;10.65;7.75;;;;;;;7.45;83.44;94115.81;4973310;28;20405;-83
2023/05/04 06:51:19;;;;;;;9.55;7.10;;;;;;;7.32;84.75;94119.19;4972018;28;20039;-82
2023/05/04 06:53:45;;;;;;;10.18;7.75;;;;;;;7.61;83.67;94127.78;4972033;28;20053;-83
2023/05/04 06:56:11;;;;;;;12.52;7.90;;;;;;;7.32;84.78;94103.31;4971851;28;20018;-82
2023/05/04 06:58:36;;;;;;;13.00;8.07;;;;;;;7.62;85.02;94137.28;4974071;28;20038;-83
2023/05/04 07:01:02;;;;;;;10.82;7.85;;;;;;;8.06;83.25;94126.34;4974172;28;20451;-83
2023/05/04 07:03:27;;;;;;;8.10;6.50;;;;;;;8.33;81.62;94136.22;4974832;28;20034;-84
2023/05/04 07:05:52;;;;;;;14.00;7.60;;;;;;;8.46;81.96;94134.69;4979720;28;20104;-80
2023/05/04 07:08:18;;;;;;;10.20;7.40;;;;;;;8.32;81.26;94131.22;4976190;28;20030;-83
2023/05/04 07:10:44;;;;;;;9.25;6.53;;;;;;;8.30;81.07;94120.91;4982295;28;20042;-81
2023/05/04 07:13:10;;;;;;;8.32;6.47;;;;;;;8.12;80.42;94127.81;4976701;28;20222;-81
2023/05/04 07:15:35;;;;;;;9.18;7.05;;;;;;;7.94;81.21;94111.97;4979421;28;20081;-82
2023/05/04 07:18:01;;;;;;;11.98;7.95;;;;;;;7.76;81.96;94132.09;4974088;28;20034;-81
2023/05/04 07:20:26;;;;;;;10.48;7.40;;;;;;;7.90;81.73;94118.91;4968815;28;20030;-81
2023/05/04 07:22:55;;;;;;;11.07;8.10;;;;;;;7.81;81.95;94139.19;4973554;28;20022;-82
2023/05/04 07:25:22;;;;;;;9.10;7.05;;;;;;;7.88;82.83;94126.34;4973467;28;20057;-81
2023/05/04 07:27:48;;;;;;;11.48;7.20;;;;;;;7.96;82.21;94141.59;4972625;28;20509;-82
2023/05/04 07:30:13;;;;;;;13.38;8.32;;;;;;;7.44;83.82;94132.75;4975115;28;20077;-80
2023/05/04 07:32:39;;;;;;;10.70;7.53;;;;;;;7.47;83.96;94142.78;4970896;28;20038;-82
2023/05/04 07:35:05;;;;;;;13.80;7.70;;;;;;;7.60;83.53;94128.84;4976416;28;20036;-82
2023/05/04 07:37:31;;;;;;;12.95;8.05;;;;;;;7.62;83.82;94142.59;4966389;28;20117;-81
2023/05/04 07:39:59;;;;;;;12.02;9.20;;;;;;;6.96;85.46;94149.75;4974590;28;20432;-82
2023/05/04 07:42:26;;;;;;;10.95;8.57;;;;;;;7.05;86.11;94140.13;4972350;28;20060;-82
2023/05/04 07:44:52;;;;;;;15.75;9.10;;;;;;;6.94;85.97;94128.13;4975328;28;20121;-81
2023/05/04 07:47:17;;;;;;;11.30;8.75;;;;;;;7.41;84.96;94145.78;4979894;28;20027;-83
2023/05/04 07:49:43;;;;;;;16.83;10.43;;;;;;;6.96;86.61;94145.25;4977022;28;20049;-82
2023/05/04 07:52:08;;;;;;;13.98;9.52;;;;;;;7.01;87.10;94139.91;4976211;28;20576;-80
2023/05/04 07:54:33;;;;;;;12.27;8.18;;;;;;;6.93;86.31;94134.47;4974948;28;20682;-81
2023/05/04 07:57:02;;;;;;;10.60;8.82;;;;;;;7.24;84.52;94131.16;4977812;28;20058;-80
2023/05/04 07:59:28;;;;;;;11.88;8.75;;;;;;;7.42;84.95;94156.09;4974708;28;20121;-81
2023/05/04 08:01:54;;;;;;;12.82;8.70;;;;;;;7.23;84.11;94144.69;4974435;28;20050;-79
2023/05/04 08:04:20;;;;;;;8.93;7.55;;;;;;;7.66;84.50;94140.94;4975499;28;20156;-81
2023/05/04 08:06:45;;;;;;;11.40;9.32;;;;;;;7.70;83.37;94157.03;4974482;28;20046;-80
2023/05/04 08:09:11;;;;;;;13.52;9.52;;;;;;;7.32;84.43;94156.22;4978121;28;20030;-81
2023/05/04 08:11:38;;;;;;;14.05;9.50;;;;;;;7.46;84.65;94154.44;4975750;28;20026;-80
2023/05/04 08:14:04;;;;;;;16.23;10.27;;;;;;;7.50;85.71;94170.53;4979231;28;20054;-79
2023/05/04 08:16:30;;;;;;;12.75;9.30;;;;;;;7.42;84.79;94176.47;4975344;28;20409;-81
2023/05/04 08:18:56;;;;;;;13.75;9.60;;;;;;;7.29;85.36;94170.00;4978757;28;20037;-80
2023/05/04 08:21:22;;;;;;;14.77;9.68;;;;;;;7.37;85.96;94150.88;4973762;28;20084;-79
2023/05/04 08:23:47;;;;;;;15.82;9.82;;;;;;;7.49;85.77;94161.00;4977654;28;20151;-80
2023/05/04 08:26:13;;;;;;;14.05;10.13;;;;;;;7.70;85.93;94176.34;4973989;28;20041;-79
2023/05/04 08:28:39;;;;;;;13.93;10.05;;;;;;;7.62;84.86;94163.78;4975673;28;20117;-80
2023/05/04 08:31:06;;;;;;;13.27;10.63;;;;;;;7.78;85.62;94155.66;4968996;28;20113;-81
2023/05/04 08:33:32;;;;;;;13.70;10.20;;;;;;;7.97;84.35;94143.94;4973249;28;20296;-80
2023/05/04 08:35:57;;;;;;;14.98;10.50;;;;;;;7.43;84.63;94155.03;4978593;28;20037;-79
2023/05/04 08:38:23;;;;;;;13.30;10.32;;;;;;;7.21;87.17;94152.13;4978304;28;20060;-82
2023/05/04 08:40:48;;;;;;;19.50;11.75;;;;;;;7.61;86.62;94167.47;4976473;28;20042;-80
2023/05/04 08:43:14;;;;;;;13.45;10.50;;;;;;;7.07;86.46;94146.72;4975280;28;20030;-82
2023/05/04 08:45:40;;;;;;;16.10;11.55;;;;;;;7.17;87.28;94161.69;4976287;28;20117;-80
2023/05/04 08:48:07;;;;;;;19.35;10.95;;;;;;;7.18;87.41;94173.84;4974866;28;20119;-79
2023/05/04 08:50:33;;;;;;;15.85;11.93;;;;;;;7.63;86.91;94164.56;4976546;28;20030;-81
2023/05/04 08:53:02;;;;;;;17.05;11.82;;;;;;;7.63;85.80;94172.50;4993553;28;20493;-80
2023/05/04 08:55:31;;;;;;;18.55;11.23;;;;;;;7.23;86.25;94144.69;4972391;28;20062;-81
2023/05/04 08:58:00;;;;;;;19.15;11.63;;;;;;;7.47;86.07;94132.22;4975623;28;20063;-79
2023/05/04 09:00:27;;;;;;;16.42;10.57;;;;;;;7.54;84.39;94156.44;4973888;28;20122;-81
2023/05/04 09:02:53;;;;;;;16.02;11.40;;;;;;;7.79;84.89;94163.28;4973251;28;20151;-80
2023/05/04 09:05:18;;;;;;;19.30;10.90;;;;;;;7.84;83.69;94149.19;4973989;28;20865;-80
2023/05/04 09:07:46;;;;;;;14.70;10.05;;;;;;;7.85;83.23;94171.94;4971570;28;20053;-80
2023/05/04 09:10:11;;;;;;;15.88;11.77;;;;;;;8.06;82.85;94141.44;4968198;28;20034;-81
2023/05/04 09:12:37;;;;;;;14.50;11.00;;;;;;;7.88;83.07;94144.88;4970706;28;20509;-80
2023/05/04 09:15:16;;;;;;;17.73;9.95;;;;;;;8.05;83.83;94171.66;4972492;28;20109;-81
2023/05/04 09:17:42;;;;;;;16.63;11.55;;;;;;;8.05;82.98;94169.78;4975468;28;20035;-82
2023/05/04 09:20:08;;;;;;;15.05;11.63;;;;;;;8.30;81.97;94149.28;4975822;28;20102;-80
2023/05/04 09:22:35;;;;;;;12.00;9.77;;;;;;;8.29;81.36;94171.53;4972753;28;20529;-79
2023/05/04 09:25:08;;;;;;;13.27;10.07;;;;;;;8.04;82.72;94170.06;4976117;28;20501;-78
2023/05/04 09:27:33;;;;;;;13.43;10.50;;;;;;;7.67;83.01;94174.28;4974999;28;20054;-78
2023/05/04 09:29:59;;;;;;;17.27;10.57;;;;;;;8.01;82.67;94175.97;4979681;28;20702;-82
2023/05/04 09:32:24;;;;;;;16.75;10.77;;;;;;;8.04;81.86;94178.03;4972551;28;20113;-80
2023/05/04 09:34:51;;;;;;;16.83;9.77;;;;;;;8.24;81.99;94174.28;4975489;28;20034;-81
2023/05/04 09:37:19;;;;;;;17.15;11.05;;;;;;;8.04;82.52;94167.44;4969803;28;20541;-79
2023/05/04 09:40:03;;;;;;;14.25;9.52;;;;;;;8.18;81.62;94164.81;4960673;28;20046;-75
2023/05/04 09:42:29;;;;;;;14.15;11.00;;;;;;;7.96;83.07;94168.09;4973980;28;20409;-81
2023/05/04 09:45:02;;;;;;;14.98;10.82;;;;;;;8.20;81.21;94152.88;4971193;28;20038;-81
2023/05/04 09:47:33;;;;;;;16.15;9.90;;;;;;;8.61;80.57;94165.47;4974521;28;20421;-81
2023/05/04 09:50:13;;;;;;;13.70;10.70;;;;;;;8.40;79.81;94152.56;4973588;28;20064;-80
2023/05/04 09:52:41;;;;;;;15.27;10.82;;;;;;;8.51;80.33;94153.16;4964798;28;20584;-80
2023/05/04 09:55:07;;;;;;;15.82;11.00;;;;;;;8.79;79.31;94161.94;4987286;28;20050;-81
2023/05/04 09:57:33;;;;;;;17.05;12.10;;;;;;;8.57;79.27;94146.69;4972552;28;20436;-81
2023/05/04 09:59:59;;;;;;;17.95;11.85;;;;;;;8.17;80.12;94142.84;4973159;28;20038;-82
2023/05/04 10:02:25;;;;;;;21.98;12.60;;;;;;;8.72;80.66;94166.84;4971650;28;20683;-80
2023/05/04 10:04:51;;;;;;;13.85;11.20;;;;;;;9.06;79.66;94158.53;4973884;28;20121;-80
2023/05/04 10:07:16;;;;;;;13.30;10.20;;;;;;;9.59;78.03;94145.53;4973283;28;20145;-79
2023/05/04 10:09:43;;;;;;;13.43;10.07;;;;;;;9.57;75.84;94142.41;4973459;28;20541;-78
2023/05/04 10:12:08;;;;;;;13.57;10.63;;;;;;;8.95;78.15;94147.34;4976145;28;20038;-79
2023/05/04 10:14:34;;;;;;;20.90;13.48;;;;;;;9.04;77.79;94150.88;4973353;28;20395;-80
2023/05/04 10:17:27;;;;;;;18.15;11.80;;;;;;;8.55;79.46;94154.16;4973616;28;20119;-79
2023/05/04 10:20:02;;;;;;;13.90;11.70;;;;;;;8.75;79.12;94115.88;4973201;28;20650;-78
2023/05/04 10:22:58;;;;;;;14.55;11.60;;;;;;;9.47;77.35;94154.03;4973061;28;20064;-79
2023/05/04 10:25:36;;;;;;;14.38;10.68;;;;;;;9.75;76.47;94138.81;4964290;28;20257;-79
2023/05/04 10:28:26;;;;;;;13.98;10.90;;;;;;;9.83;75.86;94151.38;4985732;28;20051;-81
2023/05/04 10:30:58;;;;;;;16.55;11.85;;;;;;;9.75;75.76;94138.81;4973714;28;20046;-80
2023/05/04 10:33:38;;;;;;;18.55;11.38;;;;;;;9.18;76.19;94125.16;4975621;28;20267;-78
2023/05/04 10:36:03;;;;;;;13.77;11.85;;;;;;;9.47;75.95;94132.00;4973008;28;20050;-79
2023/05/04 10:38:33;;;;;;;19.35;13.02;;;;;;;9.22;77.28;94146.56;4971864;28;20034;-78
2023/05/04 10:40:58;;;;;;;18.08;11.85;;;;;;;9.54;76.33;94154.38;4973208;28;20022;-80
2023/05/04 10:43:23;;;;;;;16.42;12.98;;;;;;;9.47;75.81;94129.34;4971424;28;20333;-80
2023/05/04 10:45:50;;;;;;;22.25;12.70;;;;;;;9.70;75.64;94130.94;4966617;28;20070;-80
2023/05/04 10:48:15;;;;;;;16.52;12.77;;;;;;;9.57;75.92;94145.84;4974282;28;20570;-79
2023/05/04 10:50:49;;;;;;;20.20;13.40;;;;;;;9.54;75.38;94140.31;4971406;28;20039;-79
2023/05/04 10:53:16;;;;;;;18.30;12.68;;;;;;;9.29;77.50;94145.06;4974300;28;20416;-80
2023/05/04 10:55:44;;;;;;;19.45;15.55;;;;;;;9.94;76.92;94131.47;4974179;28;20052;-79
2023/05/04 10:58:13;;;;;;;18.73;13.57;;;;;;;10.53;74.27;94145.50;4975058;28;20157;-80
2023/05/04 11:00:44;;;;;;;18.52;14.07;;;;;;;10.49;72.50;94142.69;4973335;28;20034;-80
2023/05/04 11:03:11;;;;;;;16.98;13.48;;;;;;;10.23;72.98;94126.53;4990892;28;20661;-80
2023/05/04 11:05:54;;;;;;;23.67;14.75;;;;;;;10.23;74.70;94139.81;4973765;28;20067;-79
2023/05/04 11:08:24;;;;;;;17.08;13.05;;;;;;;10.99;71.30;94134.47;4974621;28;20034;-83
2023/05/04 11:11:18;;;;;;;16.40;13.18;;;;;;;11.23;71.32;94134.09;4973990;28;21143;-83
2023/05/04 11:13:47;;;;;;;18.95;13.93;;;;;;;11.41;70.37;94141.03;4960905;28;20121;-81
2023/05/04 11:16:13;;;;;;;22.65;15.18;;;;;;;11.40;69.88;94139.44;4970584;28;20421;-80
2023/05/04 11:18:40;;;;;;;22.55;14.43;;;;;;;10.88;70.99;94127.84;4976323;28;20046;-80
2023/05/04 11:21:07;;;;;;;19.48;14.75;;;;;;;11.03;71.12;94141.53;4975769;28;20468;-79
2023/05/04 11:23:33;;;;;;;20.38;15.57;;;;;;;11.15;70.64;94139.06;4979340;28;20030;-80
2023/05/04 11:26:05;;;;;;;23.40;15.43;;;;;;;11.54;67.50;94129.50;4978638;28;20034;-79